createdAt,value
2022-09-09T00:00:21.810Z,89
2022-09-09T00:00:53.673Z,89
2022-09-09T00:01:25.995Z,89
2022-09-09T00:01:50.161Z,89
2022-09-09T00:02:11.171Z,89
2022-09-09T00:02:46.659Z,89
2022-09-09T00:03:17.493Z,89
2022-09-09T00:04:21.303Z,89
2022-09-09T00:04:53.409Z,89
2022-09-09T00:05:25.279Z,89
2022-09-09T00:05:48.132Z,89
2022-09-09T00:06:10.916Z,89
2022-09-09T00:06:45.369Z,89
2022-09-09T00:07:17.739Z,89
2022-09-09T00:07:50.952Z,89
2022-09-09T00:08:21.300Z,89
2022-09-09T00:08:54.040Z,89
2022-09-09T00:09:25.529Z,89
2022-09-09T00:09:48.244Z,89
2022-09-09T00:10:10.968Z,89
2022-09-09T00:10:46.655Z,89
2022-09-09T00:11:17.599Z,89
2022-09-09T00:11:51.890Z,89
2022-09-09T00:12:21.322Z,89
2022-09-09T00:12:53.286Z,89
2022-09-09T00:13:25.449Z,89
2022-09-09T00:13:53.517Z,89
2022-09-09T00:14:10.902Z,89
2022-09-09T00:14:45.423Z,89
2022-09-09T00:15:18.158Z,89
2022-09-09T00:15:49.541Z,89
2022-09-09T00:16:21.879Z,89
2022-09-09T00:16:53.433Z,89
2022-09-09T00:17:25.975Z,89
2022-09-09T00:17:48.587Z,89
2022-09-09T00:18:11.178Z,89
2022-09-09T00:18:46.043Z,89
2022-09-09T00:19:17.193Z,89
2022-09-09T00:19:49.495Z,89
2022-09-09T00:20:21.857Z,89
2022-09-09T00:20:53.324Z,89
2022-09-09T00:21:25.290Z,89
2022-09-09T00:21:48.014Z,89
2022-09-09T00:22:10.389Z,89
2022-09-09T00:22:45.631Z,89
2022-09-09T00:23:18.271Z,89
2022-09-09T00:23:50.007Z,89
2022-09-09T00:24:22.032Z,89
2022-09-09T00:24:53.632Z,89
2022-09-09T00:25:25.892Z,89
2022-09-09T00:25:52.245Z,89
2022-09-09T00:26:10.998Z,89
2022-09-09T00:26:45.365Z,89
2022-09-09T00:27:17.355Z,89
2022-09-09T00:27:49.324Z,89
2022-09-09T00:28:21.354Z,89
2022-09-09T00:28:54.062Z,89
2022-09-09T00:29:25.488Z,89
2022-09-09T00:29:48.314Z,89
2022-09-09T00:30:12.075Z,89
2022-09-09T00:30:46.188Z,89
2022-09-09T00:31:17.945Z,89
2022-09-09T00:31:49.541Z,89
2022-09-09T00:32:21.363Z,89
2022-09-09T00:32:54.582Z,89
2022-09-09T00:33:25.418Z,89
2022-09-09T00:33:48.043Z,89
2022-09-09T00:34:10.538Z,89
2022-09-09T00:34:46.325Z,89
2022-09-09T00:35:17.352Z,89
2022-09-09T00:35:49.412Z,89
2022-09-09T00:36:21.506Z,89
2022-09-09T00:36:55.670Z,88
2022-09-09T00:37:25.368Z,88
2022-09-09T00:37:48.124Z,88
2022-09-09T00:38:11.283Z,88
2022-09-09T00:38:46.293Z,88
2022-09-09T00:39:17.492Z,88
2022-09-09T00:39:49.608Z,88
2022-09-09T00:40:21.457Z,88
2022-09-09T00:40:55.389Z,87
2022-09-09T00:41:25.576Z,87
2022-09-09T00:41:48.225Z,87
2022-09-09T00:42:10.528Z,87
2022-09-09T00:42:45.431Z,87
2022-09-09T00:43:17.453Z,87
2022-09-09T00:43:49.273Z,87
2022-09-09T00:44:37.593Z,87
2022-09-09T00:45:00.579Z,87
2022-09-09T00:45:22.759Z,87
2022-09-09T00:45:53.490Z,87
2022-09-09T00:46:29.564Z,87
2022-09-09T00:46:52.273Z,87
2022-09-09T00:47:15.031Z,87
2022-09-09T00:47:49.345Z,87
2022-09-09T00:48:21.442Z,87
2022-09-09T00:48:53.216Z,87
2022-09-09T00:49:25.204Z,87
2022-09-09T00:49:48.725Z,87
2022-09-09T00:50:11.015Z,87
2022-09-09T00:50:45.220Z,87
2022-09-09T00:51:17.189Z,87
2022-09-09T00:51:49.398Z,87
2022-09-09T00:52:21.204Z,87
2022-09-09T00:52:53.327Z,87
2022-09-09T00:53:25.141Z,87
2022-09-09T00:53:47.988Z,87
2022-09-09T00:54:10.386Z,87
2022-09-09T00:54:45.322Z,87
2022-09-09T00:55:17.254Z,87
2022-09-09T00:55:49.253Z,87
2022-09-09T00:56:21.244Z,87
2022-09-09T00:56:53.326Z,87
2022-09-09T00:57:25.139Z,87
2022-09-09T00:57:48.011Z,87
2022-09-09T00:58:10.342Z,87
2022-09-09T00:58:45.350Z,87
2022-09-09T00:59:17.327Z,87
2022-09-09T00:59:49.425Z,87
2022-09-09T01:00:21.433Z,87
2022-09-09T01:00:53.383Z,87
2022-09-09T01:01:25.212Z,87
2022-09-09T01:01:48.036Z,87
2022-09-09T01:02:10.475Z,87
2022-09-09T01:02:45.480Z,87
2022-09-09T01:03:17.393Z,87
2022-09-09T01:03:49.335Z,87
2022-09-09T01:04:21.379Z,87
2022-09-09T01:04:53.373Z,87
2022-09-09T01:05:25.403Z,87
2022-09-09T01:05:48.355Z,87
2022-09-09T01:06:10.704Z,87
2022-09-09T01:06:45.219Z,87
2022-09-09T01:07:17.691Z,87
2022-09-09T01:07:49.267Z,87
2022-09-09T01:08:21.451Z,87
2022-09-09T01:08:53.397Z,87
2022-09-09T01:09:19.934Z,87
2022-09-09T01:09:53.840Z,88
2022-09-09T01:10:29.821Z,88
2022-09-09T01:10:52.405Z,88
2022-09-09T01:11:14.933Z,88
2022-09-09T01:11:49.818Z,88
2022-09-09T01:12:21.260Z,88
2022-09-09T01:12:53.393Z,88
2022-09-09T01:13:25.224Z,88
2022-09-09T01:13:48.096Z,88
2022-09-09T01:14:10.965Z,88
2022-09-09T01:14:45.534Z,88
2022-09-09T01:15:17.887Z,88
2022-09-09T01:15:49.552Z,88
2022-09-09T01:16:21.549Z,88
2022-09-09T01:16:53.748Z,88
2022-09-09T01:17:25.674Z,88
2022-09-09T01:17:48.685Z,88
2022-09-09T01:18:11.104Z,88
2022-09-09T01:18:45.339Z,88
2022-09-09T01:19:17.251Z,88
2022-09-09T01:19:49.371Z,88
2022-09-09T01:20:21.519Z,88
2022-09-09T01:20:53.301Z,88
2022-09-09T01:21:25.268Z,88
2022-09-09T01:21:47.880Z,88
2022-09-09T01:22:10.285Z,88
2022-09-09T01:22:45.346Z,88
2022-09-09T01:23:17.278Z,88
2022-09-09T01:23:51.053Z,88
2022-09-09T01:24:21.276Z,88
2022-09-09T01:24:53.876Z,88
2022-09-09T01:25:25.260Z,88
2022-09-09T01:25:47.892Z,89
2022-09-09T01:26:10.709Z,89
2022-09-09T01:26:45.347Z,89
2022-09-09T01:27:17.246Z,89
2022-09-09T01:27:49.411Z,89
2022-09-09T01:28:21.747Z,89
2022-09-09T01:28:53.795Z,89
2022-09-09T01:29:25.247Z,89
2022-09-09T01:29:47.973Z,89
2022-09-09T01:30:10.861Z,89
2022-09-09T01:30:45.374Z,89
2022-09-09T01:31:17.631Z,89
2022-09-09T01:31:49.353Z,89
2022-09-09T01:32:22.030Z,89
2022-09-09T01:32:53.254Z,89
2022-09-09T01:33:25.471Z,89
2022-09-09T01:33:48.239Z,89
2022-09-09T01:34:10.613Z,89
2022-09-09T01:34:45.683Z,89
2022-09-09T01:35:17.612Z,89
2022-09-09T01:35:49.735Z,89
2022-09-09T01:36:22.814Z,89
2022-09-09T01:36:59.844Z,89
2022-09-09T01:37:25.452Z,89
2022-09-09T01:37:47.890Z,89
2022-09-09T01:38:11.172Z,89
2022-09-09T01:38:45.251Z,89
2022-09-09T01:39:17.631Z,89
2022-09-09T01:39:49.566Z,89
2022-09-09T01:40:23.044Z,89
2022-09-09T01:40:53.266Z,89
2022-09-09T01:41:25.396Z,89
2022-09-09T01:41:48.087Z,89
2022-09-09T01:42:11.978Z,89
2022-09-09T01:42:45.331Z,89
2022-09-09T01:43:17.646Z,89
2022-09-09T01:43:49.217Z,89
2022-09-09T01:44:21.089Z,89
2022-09-09T01:44:53.191Z,89
2022-09-09T01:45:25.220Z,89
2022-09-09T01:45:47.979Z,90
2022-09-09T01:46:10.765Z,89
2022-09-09T01:46:45.203Z,90
2022-09-09T01:47:17.538Z,90
2022-09-09T01:47:49.378Z,90
2022-09-09T01:48:22.894Z,90
2022-09-09T01:48:53.393Z,90
2022-09-09T01:49:26.043Z,90
2022-09-09T01:49:49.023Z,90
2022-09-09T01:50:12.225Z,90
2022-09-09T01:50:45.477Z,90
2022-09-09T01:51:17.379Z,90
2022-09-09T01:51:49.184Z,90
2022-09-09T01:52:21.193Z,90
2022-09-09T01:52:53.180Z,90
2022-09-09T01:53:25.185Z,90
2022-09-09T01:53:47.873Z,90
2022-09-09T01:54:10.931Z,90
2022-09-09T01:54:45.586Z,90
2022-09-09T01:55:17.259Z,90
2022-09-09T01:55:49.402Z,90
2022-09-09T01:56:21.260Z,91
2022-09-09T01:56:53.307Z,91
2022-09-09T01:57:25.877Z,91
2022-09-09T01:57:48.681Z,91
2022-09-09T01:58:11.022Z,91
2022-09-09T01:58:45.173Z,91
2022-09-09T01:59:17.911Z,91
2022-09-09T01:59:49.382Z,91
2022-09-09T02:00:22.553Z,91
2022-09-09T02:00:53.589Z,91
2022-09-09T02:01:25.289Z,91
2022-09-09T02:01:48.260Z,91
2022-09-09T02:02:11.091Z,91
2022-09-09T02:02:45.785Z,91
2022-09-09T02:03:17.581Z,91
2022-09-09T02:03:49.184Z,91
2022-09-09T02:04:21.656Z,91
2022-09-09T02:04:53.311Z,91
2022-09-09T02:05:27.344Z,91
2022-09-09T02:05:49.955Z,91
2022-09-09T02:06:12.466Z,91
2022-09-09T02:06:45.592Z,91
2022-09-09T02:07:17.732Z,91
2022-09-09T02:07:49.255Z,91
2022-09-09T02:08:21.395Z,91
2022-09-09T02:08:53.298Z,91
2022-09-09T02:09:29.095Z,91
2022-09-09T02:09:51.694Z,91
2022-09-09T02:10:29.281Z,91
2022-09-09T02:10:58.669Z,92
2022-09-09T02:11:14.476Z,92
2022-09-09T02:11:49.362Z,92
2022-09-09T02:12:21.165Z,92
2022-09-09T02:12:53.537Z,92
2022-09-09T02:13:25.024Z,92
2022-09-09T02:13:48.347Z,92
2022-09-09T02:14:10.723Z,92
2022-09-09T02:14:45.404Z,92
2022-09-09T02:15:17.278Z,92
2022-09-09T02:15:49.213Z,92
2022-09-09T02:16:21.190Z,92
2022-09-09T02:16:53.265Z,92
2022-09-09T02:17:25.138Z,92
2022-09-09T02:17:47.996Z,92
2022-09-09T02:18:10.933Z,92
2022-09-09T02:18:45.071Z,92
2022-09-09T02:19:17.223Z,92
2022-09-09T02:19:49.184Z,92
2022-09-09T02:20:21.589Z,92
2022-09-09T02:20:53.565Z,92
2022-09-09T02:21:25.082Z,92
2022-09-09T02:21:47.901Z,92
2022-09-09T02:22:10.143Z,92
2022-09-09T02:22:45.250Z,92
2022-09-09T02:23:17.196Z,92
2022-09-09T02:23:49.309Z,92
2022-09-09T02:24:21.189Z,92
2022-09-09T02:24:53.081Z,92
2022-09-09T02:25:25.103Z,92
2022-09-09T02:25:47.948Z,92
2022-09-09T02:26:10.868Z,92
2022-09-09T02:26:45.799Z,92
2022-09-09T02:27:17.627Z,92
2022-09-09T02:27:49.189Z,92
2022-09-09T02:28:21.213Z,92
2022-09-09T02:28:53.380Z,92
2022-09-09T02:29:25.050Z,92
2022-09-09T02:29:47.841Z,92
2022-09-09T02:30:10.243Z,92
2022-09-09T02:30:45.204Z,92
2022-09-09T02:31:18.595Z,92
2022-09-09T02:31:49.251Z,92
2022-09-09T02:32:21.241Z,92
2022-09-09T02:32:53.616Z,93
2022-09-09T02:33:25.383Z,92
2022-09-09T02:33:50.472Z,92
2022-09-09T02:34:10.496Z,92
2022-09-09T02:34:45.160Z,92
2022-09-09T02:35:17.193Z,93
2022-09-09T02:35:49.050Z,92
2022-09-09T02:36:21.705Z,93
2022-09-09T02:36:53.172Z,93
2022-09-09T02:37:25.698Z,93
2022-09-09T02:37:52.607Z,93
2022-09-09T02:38:11.406Z,93
2022-09-09T02:38:45.145Z,93
2022-09-09T02:39:17.229Z,93
2022-09-09T02:39:49.320Z,93
2022-09-09T02:40:21.053Z,93
2022-09-09T02:40:53.113Z,93
2022-09-09T02:41:25.023Z,93
2022-09-09T02:41:48.447Z,93
2022-09-09T02:42:11.406Z,93
2022-09-09T02:42:45.162Z,93
2022-09-09T02:43:17.075Z,93
2022-09-09T02:43:49.269Z,93
2022-09-09T02:44:20.998Z,93
2022-09-09T02:44:53.240Z,93
2022-09-09T02:45:25.151Z,93
2022-09-09T02:45:47.975Z,93
2022-09-09T02:46:12.119Z,93
2022-09-09T02:46:45.250Z,93
2022-09-09T02:47:17.650Z,93
2022-09-09T02:47:49.065Z,93
2022-09-09T02:48:21.548Z,93
2022-09-09T02:48:53.017Z,93
2022-09-09T02:49:25.247Z,93
2022-09-09T02:49:48.689Z,93
2022-09-09T02:50:12.519Z,93
2022-09-09T02:50:45.144Z,93
2022-09-09T02:51:17.672Z,93
2022-09-09T02:51:49.033Z,93
2022-09-09T02:52:21.556Z,93
2022-09-09T02:52:53.120Z,93
2022-09-09T02:53:25.182Z,93
2022-09-09T02:53:47.899Z,93
2022-09-09T02:54:10.452Z,93
2022-09-09T02:54:45.177Z,93
2022-09-09T02:55:17.234Z,93
2022-09-09T02:55:49.168Z,93
2022-09-09T02:56:22.673Z,93
2022-09-09T02:56:53.035Z,93
2022-09-09T02:57:25.141Z,93
2022-09-09T02:57:47.801Z,93
2022-09-09T02:58:10.150Z,93
2022-09-09T02:58:45.646Z,93
2022-09-09T02:59:17.169Z,93
2022-09-09T02:59:49.180Z,93
2022-09-09T03:00:21.162Z,93
2022-09-09T03:00:53.182Z,93
2022-09-09T03:01:25.149Z,93
2022-09-09T03:01:48.067Z,93
2022-09-09T03:02:10.321Z,93
2022-09-09T03:02:45.342Z,93
2022-09-09T03:03:17.527Z,93
2022-09-09T03:03:50.648Z,93
2022-09-09T03:04:21.250Z,93
2022-09-09T03:04:53.629Z,93
2022-09-09T03:05:25.069Z,93
2022-09-09T03:05:47.686Z,93
2022-09-09T03:06:15.521Z,93
2022-09-09T03:06:46.727Z,93
2022-09-09T03:07:17.627Z,93
2022-09-09T03:07:48.989Z,93
2022-09-09T03:08:21.118Z,93
2022-09-09T03:08:53.013Z,93
2022-09-09T03:09:25.265Z,93
2022-09-09T03:09:49.558Z,93
2022-09-09T03:10:10.473Z,93
2022-09-09T03:10:46.521Z,93
2022-09-09T03:11:18.800Z,93
2022-09-09T03:11:49.609Z,93
2022-09-09T03:12:21.096Z,93
2022-09-09T03:12:53.373Z,93
2022-09-09T03:13:25.111Z,93
2022-09-09T03:13:49.736Z,93
2022-09-09T03:14:10.686Z,93
2022-09-09T03:14:45.177Z,93
2022-09-09T03:15:17.730Z,93
2022-09-09T03:15:49.206Z,94
2022-09-09T03:16:21.594Z,94
2022-09-09T03:16:53.338Z,93
2022-09-09T03:17:25.162Z,94
2022-09-09T03:17:48.007Z,94
2022-09-09T03:18:10.430Z,94
2022-09-09T03:18:45.155Z,94
2022-09-09T03:19:17.135Z,94
2022-09-09T03:19:49.167Z,94
2022-09-09T03:20:21.144Z,94
2022-09-09T03:20:53.237Z,94
2022-09-09T03:21:25.105Z,94
2022-09-09T03:21:48.047Z,94
2022-09-09T03:22:10.322Z,94
2022-09-09T03:22:45.114Z,94
2022-09-09T03:23:17.185Z,94
2022-09-09T03:23:49.003Z,94
2022-09-09T03:24:21.120Z,94
2022-09-09T03:24:53.005Z,94
2022-09-09T03:25:25.111Z,94
2022-09-09T03:25:47.936Z,94
2022-09-09T03:26:10.438Z,94
2022-09-09T03:26:44.992Z,94
2022-09-09T03:27:17.619Z,93
2022-09-09T03:27:49.271Z,94
2022-09-09T03:28:21.249Z,94
2022-09-09T03:28:54.523Z,94
2022-09-09T03:29:25.165Z,94
2022-09-09T03:29:47.898Z,93
2022-09-09T03:30:10.405Z,93
2022-09-09T03:30:44.993Z,93
2022-09-09T03:31:17.790Z,93
2022-09-09T03:31:49.296Z,93
2022-09-09T03:32:21.008Z,93
2022-09-09T03:32:53.500Z,93
2022-09-09T03:33:25.066Z,93
2022-09-09T03:33:48.371Z,93
2022-09-09T03:34:10.769Z,93
2022-09-09T03:34:45.213Z,93
2022-09-09T03:35:18.635Z,93
2022-09-09T03:35:49.087Z,93
2022-09-09T03:36:21.370Z,93
2022-09-09T03:36:53.122Z,93
2022-09-09T03:37:25.060Z,93
2022-09-09T03:37:48.394Z,93
2022-09-09T03:38:10.717Z,93
2022-09-09T03:38:45.226Z,93
2022-09-09T03:39:19.012Z,93
2022-09-09T03:39:49.149Z,93
2022-09-09T03:40:21.126Z,93
2022-09-09T03:40:52.961Z,93
2022-09-09T03:41:25.080Z,93
2022-09-09T03:41:48.113Z,93
2022-09-09T03:42:10.491Z,93
2022-09-09T03:42:45.068Z,93
2022-09-09T03:43:20.136Z,93
2022-09-09T03:43:48.961Z,93
2022-09-09T03:44:21.060Z,93
2022-09-09T03:44:53.081Z,93
2022-09-09T03:45:25.196Z,93
2022-09-09T03:45:47.968Z,93
2022-09-09T03:46:10.535Z,93
2022-09-09T03:46:45.048Z,93
2022-09-09T03:47:17.116Z,93
2022-09-09T03:47:49.094Z,93
2022-09-09T03:48:21.626Z,93
2022-09-09T03:48:53.080Z,93
2022-09-09T03:49:25.057Z,93
2022-09-09T03:49:50.778Z,93
2022-09-09T03:50:11.716Z,93
2022-09-09T03:50:45.047Z,93
2022-09-09T03:51:17.158Z,93
2022-09-09T03:51:49.107Z,93
2022-09-09T03:52:23.655Z,93
2022-09-09T03:52:53.060Z,92
2022-09-09T03:53:25.133Z,92
2022-09-09T03:53:47.884Z,92
2022-09-09T03:54:10.509Z,92
2022-09-09T03:54:45.054Z,92
2022-09-09T03:55:17.282Z,92
2022-09-09T03:55:48.959Z,91
2022-09-09T03:56:21.311Z,91
2022-09-09T03:56:53.057Z,91
2022-09-09T03:57:25.102Z,91
2022-09-09T03:57:48.037Z,91
2022-09-09T03:58:10.406Z,91
2022-09-09T03:58:44.980Z,91
2022-09-09T03:59:17.012Z,90
2022-09-09T03:59:49.129Z,90
2022-09-09T04:00:21.799Z,90
2022-09-09T04:00:53.145Z,90
2022-09-09T04:01:25.213Z,90
2022-09-09T04:01:47.889Z,90
2022-09-09T04:02:10.286Z,90
2022-09-09T04:02:45.077Z,90
2022-09-09T04:03:17.101Z,90
2022-09-09T04:03:49.116Z,90
2022-09-09T04:04:22.483Z,90
2022-09-09T04:04:53.018Z,90
2022-09-09T04:05:25.003Z,89
2022-09-09T04:05:48.238Z,89
2022-09-09T04:06:10.632Z,89
2022-09-09T04:06:45.063Z,89
2022-09-09T04:07:17.104Z,89
2022-09-09T04:07:49.615Z,89
2022-09-09T04:08:23.120Z,89
2022-09-09T04:08:53.194Z,89
2022-09-09T04:09:25.099Z,89
2022-09-09T04:09:48.412Z,89
2022-09-09T04:10:10.659Z,89
2022-09-09T04:10:45.075Z,89
2022-09-09T04:11:17.682Z,89
2022-09-09T04:11:49.208Z,89
2022-09-09T04:12:23.397Z,89
2022-09-09T04:12:53.064Z,89
2022-09-09T04:13:24.999Z,89
2022-09-09T04:13:50.986Z,89
2022-09-09T04:14:10.746Z,89
2022-09-09T04:14:45.136Z,89
2022-09-09T04:15:17.211Z,89
2022-09-09T04:15:49.075Z,89
2022-09-09T04:16:21.100Z,89
2022-09-09T04:16:53.147Z,89
2022-09-09T04:17:25.032Z,89
2022-09-09T04:17:47.791Z,89
2022-09-09T04:18:10.559Z,89
2022-09-09T04:18:44.962Z,89
2022-09-09T04:19:16.926Z,89
2022-09-09T04:19:49.365Z,89
2022-09-09T04:20:20.948Z,89
2022-09-09T04:20:54.470Z,89
2022-09-09T04:21:25.004Z,89
2022-09-09T04:21:48.568Z,89
2022-09-09T04:22:11.015Z,89
2022-09-09T04:22:44.906Z,89
2022-09-09T04:23:17.053Z,89
2022-09-09T04:23:49.000Z,89
2022-09-09T04:24:20.930Z,89
2022-09-09T04:24:53.015Z,89
2022-09-09T04:25:25.365Z,89
2022-09-09T04:25:47.986Z,89
2022-09-09T04:26:10.249Z,89
2022-09-09T04:26:45.197Z,89
2022-09-09T04:27:17.065Z,89
2022-09-09T04:27:49.016Z,89
2022-09-09T04:28:21.162Z,89
2022-09-09T04:28:52.964Z,89
2022-09-09T04:29:26.156Z,89
2022-09-09T04:29:47.989Z,89
2022-09-09T04:30:10.421Z,89
2022-09-09T04:30:45.046Z,89
2022-09-09T04:31:17.226Z,89
2022-09-09T04:31:49.181Z,89
2022-09-09T04:32:21.016Z,89
2022-09-09T04:32:52.945Z,90
2022-09-09T04:33:26.572Z,89
2022-09-09T04:33:47.659Z,89
2022-09-09T04:34:09.978Z,89
2022-09-09T04:34:45.552Z,89
2022-09-09T04:35:17.186Z,90
2022-09-09T04:35:50.646Z,90
2022-09-09T04:36:21.039Z,90
2022-09-09T04:36:53.454Z,90
2022-09-09T04:37:27.929Z,90
2022-09-09T04:37:48.538Z,90
2022-09-09T04:38:10.947Z,90
2022-09-09T04:38:45.091Z,90
2022-09-09T04:39:17.067Z,90
2022-09-09T04:39:49.121Z,90
2022-09-09T04:40:20.987Z,90
2022-09-09T04:40:53.009Z,90
2022-09-09T04:41:25.266Z,90
2022-09-09T04:41:47.869Z,90
2022-09-09T04:42:10.302Z,90
2022-09-09T04:42:45.083Z,90
2022-09-09T04:43:17.211Z,90
2022-09-09T04:43:49.004Z,90
2022-09-09T04:44:21.065Z,90
2022-09-09T04:44:52.999Z,90
2022-09-09T04:45:25.177Z,90
2022-09-09T04:45:47.978Z,90
2022-09-09T04:46:10.435Z,90
2022-09-09T04:46:45.161Z,90
2022-09-09T04:47:17.191Z,90
2022-09-09T04:47:49.009Z,90
2022-09-09T04:48:21.353Z,90
2022-09-09T04:48:53.072Z,90
2022-09-09T04:49:25.459Z,90
2022-09-09T04:49:47.993Z,90
2022-09-09T04:50:10.645Z,90
2022-09-09T04:50:46.569Z,90
2022-09-09T04:51:17.437Z,90
2022-09-09T04:51:49.088Z,90
2022-09-09T04:52:21.087Z,90
2022-09-09T04:52:53.162Z,90
2022-09-09T04:53:24.999Z,90
2022-09-09T04:53:47.809Z,90
2022-09-09T04:54:10.213Z,90
2022-09-09T04:54:45.029Z,90
2022-09-09T04:55:17.086Z,89
2022-09-09T04:55:49.130Z,89
2022-09-09T04:56:21.453Z,89
2022-09-09T04:56:53.108Z,89
2022-09-09T04:57:25.151Z,89
2022-09-09T04:57:47.946Z,89
2022-09-09T04:58:10.354Z,89
2022-09-09T04:58:45.074Z,89
2022-09-09T04:59:17.290Z,89
2022-09-09T04:59:49.103Z,89
2022-09-09T05:00:21.134Z,89
2022-09-09T05:00:53.161Z,89
2022-09-09T05:01:25.095Z,89
2022-09-09T05:01:47.869Z,89
2022-09-09T05:02:10.279Z,89
2022-09-09T05:02:45.390Z,89
2022-09-09T05:03:17.282Z,89
2022-09-09T05:03:49.126Z,89
2022-09-09T05:04:21.273Z,89
2022-09-09T05:04:53.224Z,89
2022-09-09T05:05:25.348Z,89
2022-09-09T05:05:47.789Z,89
2022-09-09T05:06:10.102Z,89
2022-09-09T05:06:45.245Z,89
2022-09-09T05:07:17.052Z,89
2022-09-09T05:07:50.609Z,89
2022-09-09T05:08:21.085Z,89
2022-09-09T05:08:53.340Z,89
2022-09-09T05:09:25.320Z,89
2022-09-09T05:09:48.608Z,89
2022-09-09T05:10:10.911Z,89
2022-09-09T05:10:45.168Z,89
2022-09-09T05:11:17.005Z,89
2022-09-09T05:11:49.273Z,89
2022-09-09T05:12:21.443Z,89
2022-09-09T05:12:53.093Z,89
2022-09-09T05:13:24.994Z,89
2022-09-09T05:13:49.484Z,89
2022-09-09T05:14:11.362Z,89
2022-09-09T05:14:45.139Z,89
2022-09-09T05:15:17.224Z,89
2022-09-09T05:15:49.047Z,89
2022-09-09T05:16:21.402Z,89
2022-09-09T05:16:53.354Z,89
2022-09-09T05:17:25.106Z,89
2022-09-09T05:17:48.682Z,89
2022-09-09T05:18:11.289Z,89
2022-09-09T05:18:45.139Z,89
2022-09-09T05:19:17.210Z,89
2022-09-09T05:19:49.079Z,89
2022-09-09T05:20:21.162Z,89
2022-09-09T05:20:53.449Z,89
2022-09-09T05:21:25.259Z,89
2022-09-09T05:21:48.586Z,89
2022-09-09T05:22:11.041Z,89
2022-09-09T05:22:45.101Z,89
2022-09-09T05:23:16.950Z,89
2022-09-09T05:23:49.313Z,89
2022-09-09T05:24:20.974Z,89
2022-09-09T05:24:53.123Z,89
2022-09-09T05:25:24.971Z,89
2022-09-09T05:25:47.813Z,89
2022-09-09T05:26:11.348Z,89
2022-09-09T05:26:45.068Z,89
2022-09-09T05:27:17.188Z,89
2022-09-09T05:27:49.085Z,89
2022-09-09T05:28:21.062Z,89
2022-09-09T05:28:52.980Z,89
2022-09-09T05:29:25.307Z,89
2022-09-09T05:29:47.846Z,89
2022-09-09T05:30:10.230Z,89
2022-09-09T05:30:45.293Z,88
2022-09-09T05:31:17.257Z,88
2022-09-09T05:31:49.213Z,88
2022-09-09T05:32:21.105Z,88
2022-09-09T05:32:53.619Z,88
2022-09-09T05:33:25.252Z,88
2022-09-09T05:33:47.938Z,88
2022-09-09T05:34:10.296Z,88
2022-09-09T05:34:45.309Z,88
2022-09-09T05:35:17.071Z,88
2022-09-09T05:35:49.357Z,88
2022-09-09T05:36:21.201Z,88
2022-09-09T05:36:53.022Z,88
2022-09-09T05:37:25.082Z,88
2022-09-09T05:37:48.256Z,88
2022-09-09T05:38:10.783Z,88
2022-09-09T05:38:45.040Z,88
2022-09-09T05:39:17.034Z,88
2022-09-09T05:39:49.168Z,88
2022-09-09T05:40:21.040Z,88
2022-09-09T05:40:53.334Z,88
2022-09-09T05:41:25.176Z,88
2022-09-09T05:41:48.253Z,88
2022-09-09T05:42:10.364Z,88
2022-09-09T05:42:45.436Z,88
2022-09-09T05:43:16.956Z,88
2022-09-09T05:43:49.123Z,88
2022-09-09T05:44:21.085Z,88
2022-09-09T05:44:52.984Z,88
2022-09-09T05:45:25.003Z,88
2022-09-09T05:45:47.805Z,88
2022-09-09T05:46:10.038Z,88
2022-09-09T05:46:45.190Z,88
2022-09-09T05:47:17.331Z,88
2022-09-09T05:47:48.965Z,88
2022-09-09T05:48:21.224Z,88
2022-09-09T05:48:53.347Z,88
2022-09-09T05:49:25.105Z,88
2022-09-09T05:49:50.963Z,88
2022-09-09T05:50:31.586Z,88
2022-09-09T05:50:53.127Z,88
2022-09-09T05:51:15.232Z,88
2022-09-09T05:51:49.088Z,88
2022-09-09T05:52:21.115Z,88
2022-09-09T05:52:53.414Z,88
2022-09-09T05:53:25.222Z,88
2022-09-09T05:53:48.168Z,88
2022-09-09T05:54:10.450Z,88
2022-09-09T05:54:44.980Z,88
2022-09-09T05:55:17.194Z,88
2022-09-09T05:55:48.935Z,88
2022-09-09T05:56:22.474Z,88
2022-09-09T05:56:53.011Z,88
2022-09-09T05:57:24.945Z,88
2022-09-09T05:57:48.612Z,88
2022-09-09T05:58:11.008Z,88
2022-09-09T05:58:45.060Z,88
2022-09-09T05:59:17.058Z,88
2022-09-09T05:59:49.013Z,88
2022-09-09T06:00:21.013Z,88
2022-09-09T06:00:52.884Z,88
2022-09-09T06:01:24.948Z,88
2022-09-09T06:01:48.068Z,88
2022-09-09T06:02:10.204Z,88
2022-09-09T06:02:45.402Z,88
2022-09-09T06:03:17.557Z,88
2022-09-09T06:03:48.961Z,88
2022-09-09T06:04:21.287Z,88
2022-09-09T06:04:55.625Z,88
2022-09-09T06:05:24.995Z,88
2022-09-09T06:05:48.024Z,88
2022-09-09T06:06:12.859Z,88
2022-09-09T06:06:45.003Z,88
2022-09-09T06:07:17.039Z,88
2022-09-09T06:07:49.062Z,88
2022-09-09T06:08:21.111Z,88
2022-09-09T06:08:52.948Z,88
2022-09-09T06:09:25.119Z,88
2022-09-09T06:09:48.135Z,88
2022-09-09T06:10:10.488Z,88
2022-09-09T06:10:45.080Z,88
2022-09-09T06:11:16.953Z,88
2022-09-09T06:11:49.181Z,88
2022-09-09T06:12:20.968Z,88
2022-09-09T06:12:53.045Z,88
2022-09-09T06:13:24.894Z,88
2022-09-09T06:13:48.136Z,88
2022-09-09T06:14:10.517Z,88
2022-09-09T06:14:46.562Z,88
2022-09-09T06:15:17.260Z,88
2022-09-09T06:15:49.049Z,88
2022-09-09T06:16:21.691Z,88
2022-09-09T06:16:53.026Z,88
2022-09-09T06:17:24.961Z,88
2022-09-09T06:17:47.690Z,88
2022-09-09T06:18:10.149Z,88
2022-09-09T06:18:45.233Z,88
2022-09-09T06:19:17.139Z,88
2022-09-09T06:19:48.950Z,88
2022-09-09T06:20:21.119Z,88
2022-09-09T06:20:53.028Z,88
2022-09-09T06:21:25.405Z,88
2022-09-09T06:21:48.116Z,88
2022-09-09T06:22:10.564Z,88
2022-09-09T06:22:45.008Z,88
2022-09-09T06:23:17.045Z,88
2022-09-09T06:23:49.011Z,88
2022-09-09T06:24:21.139Z,88
2022-09-09T06:24:53.060Z,87
2022-09-09T06:25:25.111Z,88
2022-09-09T06:25:47.849Z,88
2022-09-09T06:26:10.076Z,87
2022-09-09T06:26:45.342Z,87
2022-09-09T06:27:17.005Z,87
2022-09-09T06:27:49.773Z,87
2022-09-09T06:28:21.073Z,87
2022-09-09T06:28:53.013Z,87
2022-09-09T06:29:24.963Z,87
2022-09-09T06:29:48.033Z,87
2022-09-09T06:30:10.136Z,87
2022-09-09T06:30:45.655Z,87
2022-09-09T06:31:17.063Z,87
2022-09-09T06:31:49.181Z,87
2022-09-09T06:32:21.006Z,87
2022-09-09T06:32:53.055Z,87
2022-09-09T06:33:25.215Z,87
2022-09-09T06:33:47.866Z,87
2022-09-09T06:34:10.421Z,87
2022-09-09T06:34:46.593Z,87
2022-09-09T06:35:17.038Z,87
2022-09-09T06:35:49.060Z,87
2022-09-09T06:36:21.470Z,87
2022-09-09T06:36:53.051Z,87
2022-09-09T06:37:25.072Z,87
2022-09-09T06:37:48.444Z,87
2022-09-09T06:38:10.793Z,87
2022-09-09T06:38:47.081Z,87
2022-09-09T06:39:17.260Z,87
2022-09-09T06:39:48.994Z,87
2022-09-09T06:40:21.181Z,87
2022-09-09T06:40:52.891Z,87
2022-09-09T06:41:25.066Z,87
2022-09-09T06:41:47.804Z,87
2022-09-09T06:42:10.241Z,87
2022-09-09T06:42:47.948Z,87
2022-09-09T06:43:17.028Z,86
2022-09-09T06:43:49.540Z,86
2022-09-09T06:44:20.911Z,87
2022-09-09T06:44:53.032Z,87
2022-09-09T06:45:25.036Z,87
2022-09-09T06:45:48.119Z,87
2022-09-09T06:46:10.232Z,87
2022-09-09T06:46:45.760Z,87
2022-09-09T06:47:16.900Z,87
2022-09-09T06:47:48.924Z,87
2022-09-09T06:48:21.216Z,87
2022-09-09T06:48:53.039Z,86
2022-09-09T06:49:25.030Z,87
2022-09-09T06:49:49.217Z,87
2022-09-09T06:50:11.705Z,86
2022-09-09T06:50:45.562Z,86
2022-09-09T06:51:17.068Z,86
2022-09-09T06:51:49.428Z,86
2022-09-09T06:52:20.947Z,86
2022-09-09T06:52:52.871Z,86
2022-09-09T06:53:25.102Z,86
2022-09-09T06:53:54.444Z,86
2022-09-09T06:54:10.128Z,86
2022-09-09T06:54:45.137Z,86
2022-09-09T06:55:17.119Z,86
2022-09-09T06:55:50.185Z,86
2022-09-09T06:56:21.141Z,86
2022-09-09T06:56:53.085Z,86
2022-09-09T06:57:37.028Z,86
2022-09-09T06:57:50.035Z,86
2022-09-09T06:58:09.883Z,86
2022-09-09T06:58:46.569Z,86
2022-09-09T06:59:17.017Z,86
2022-09-09T06:59:51.104Z,86
2022-09-09T07:00:21.017Z,86
2022-09-09T07:00:53.882Z,86
2022-09-09T07:01:24.860Z,86
2022-09-09T07:01:55.414Z,86
2022-09-09T07:02:10.227Z,86
2022-09-09T07:02:45.078Z,86
2022-09-09T07:03:17.109Z,86
2022-09-09T07:03:51.318Z,86
2022-09-09T07:04:21.411Z,86
2022-09-09T07:04:53.317Z,86
2022-09-09T07:05:25.002Z,86
2022-09-09T07:05:51.384Z,86
2022-09-09T07:06:10.629Z,86
2022-09-09T07:06:45.148Z,86
2022-09-09T07:07:17.125Z,85
2022-09-09T07:07:51.825Z,85
2022-09-09T07:08:21.302Z,85